Time;durP1;ratioP1;P1;durP2;ratioP2;P2;SDS_P1;SDS_P2;PMS_P1;PMS_P2;Temp;Humidity;BMP_temperature;BMP_pressure;BME280_temperature;BME280_humidity;BME280_pressure;Samples;Min_cycle;Max_cycle;Signal;HPM_P1;HPM_P2
2021/06/30 00:02:18;;;;;;;23.55;20.70;;;25.30;97.80;;;;;;4883391;29;20127;-85
2021/06/30 00:04:45;;;;;;;25.90;21.58;;;25.30;97.80;;;;;;4899286;29;20487;-84
2021/06/30 00:07:11;;;;;;;24.90;21.98;;;25.30;97.80;;;;;;4883547;29;20416;-84
2021/06/30 00:09:37;;;;;;;24.60;21.50;;;25.30;97.80;;;;;;4899125;29;20035;-84
2021/06/30 00:12:03;;;;;;;24.42;21.65;;;25.30;97.80;;;;;;4900249;29;20088;-84
2021/06/30 00:14:29;;;;;;;26.80;22.85;;;25.30;97.80;;;;;;4900132;29;20479;-84
2021/06/30 00:16:55;;;;;;;26.45;22.95;;;25.30;97.80;;;;;;4900014;29;20025;-85
2021/06/30 00:19:21;;;;;;;27.20;23.10;;;25.30;97.80;;;;;;4883418;29;20036;-84
2021/06/30 00:21:46;;;;;;;29.55;24.02;;;25.30;97.80;;;;;;4883174;29;20091;-85
2021/06/30 00:24:12;;;;;;;28.88;23.58;;;25.30;97.80;;;;;;4899968;29;20036;-84
2021/06/30 00:26:39;;;;;;;28.70;24.08;;;25.30;97.80;;;;;;4898782;29;20438;-84
2021/06/30 00:29:06;;;;;;;28.75;24.00;;;25.30;97.80;;;;;;4898806;29;20032;-85
2021/06/30 00:31:33;;;;;;;28.13;23.95;;;25.30;97.80;;;;;;4899546;29;20169;-84
2021/06/30 00:34:03;;;;;;;29.75;25.23;;;25.30;97.80;;;;;;4898496;29;20044;-84
2021/06/30 00:36:37;;;;;;;30.20;25.50;;;25.30;97.80;;;;;;4898616;29;20032;-84
2021/06/30 00:39:05;;;;;;;30.75;25.35;;;25.30;97.80;;;;;;4898585;29;20088;-85
2021/06/30 00:41:32;;;;;;;27.83;24.08;;;25.30;97.80;;;;;;4898134;29;20044;-84
2021/06/30 00:43:58;;;;;;;30.02;25.30;;;25.30;97.80;;;;;;4898809;29;20043;-84
2021/06/30 00:46:34;;;;;;;29.05;25.13;;;25.30;97.80;;;;;;4898128;29;20067;-84
2021/06/30 00:49:00;;;;;;;30.55;25.27;;;25.30;97.80;;;;;;4899916;29;20047;-85
2021/06/30 00:51:27;;;;;;;29.13;25.20;;;25.30;97.80;;;;;;4899148;29;20075;-84
2021/06/30 00:53:54;;;;;;;26.77;23.17;;;25.30;97.80;;;;;;4898611;29;20029;-84
2021/06/30 00:56:24;;;;;;;29.38;24.25;;;25.30;97.80;;;;;;4899386;29;20028;-84
2021/06/30 00:58:55;;;;;;;30.30;25.27;;;25.30;97.80;;;;;;4898496;29;20037;-84
2021/06/30 01:01:21;;;;;;;30.30;25.25;;;25.30;97.80;;;;;;4882787;29;20037;-84
2021/06/30 01:03:49;;;;;;;29.92;25.67;;;25.30;97.80;;;;;;4898409;29;20447;-84
2021/06/30 01:06:15;;;;;;;31.00;25.65;;;25.30;97.80;;;;;;4897988;29;20395;-84
2021/06/30 01:08:41;;;;;;;28.33;24.33;;;25.30;97.80;;;;;;4897960;29;20467;-85
2021/06/30 01:11:07;;;;;;;29.77;26.05;;;25.30;97.80;;;;;;4897740;29;20040;-85
2021/06/30 01:13:33;;;;;;;27.20;24.15;;;25.30;97.80;;;;;;4897990;29;20037;-84
2021/06/30 01:15:59;;;;;;;31.42;26.30;;;25.30;97.80;;;;;;4898348;29;20028;-84
2021/06/30 01:18:26;;;;;;;29.77;25.63;;;25.30;97.80;;;;;;4882025;29;20464;-84
2021/06/30 01:20:53;;;;;;;31.05;25.63;;;25.20;97.80;;;;;;4899191;29;20021;-85
2021/06/30 01:23:20;;;;;;;31.05;26.05;;;25.30;97.80;;;;;;4881792;29;20042;-85
2021/06/30 01:25:46;;;;;;;31.63;26.70;;;25.30;97.80;;;;;;4897674;29;20059;-85
2021/06/30 01:28:13;;;;;;;29.50;25.52;;;25.30;97.80;;;;;;4898011;29;20185;-84
2021/06/30 01:30:40;;;;;;;32.88;26.38;;;25.30;97.80;;;;;;4897872;29;20040;-84
2021/06/30 01:33:07;;;;;;;28.75;25.00;;;25.30;97.80;;;;;;4897418;29;20032;-85
2021/06/30 01:35:33;;;;;;;31.45;26.75;;;25.30;97.80;;;;;;4881942;29;20033;-84
2021/06/30 01:37:59;;;;;;;32.05;26.92;;;25.30;97.80;;;;;;4897591;29;20032;-84
2021/06/30 01:40:25;;;;;;;33.55;26.33;;;25.30;97.80;;;;;;4897313;29;20032;-85
2021/06/30 01:42:55;;;;;;;28.05;25.02;;;25.30;97.80;;;;;;4897665;29;20475;-84
2021/06/30 01:45:21;;;;;;;28.83;25.42;;;25.30;98.00;;;;;;4897227;29;20067;-84
2021/06/30 01:47:46;;;;;;;32.25;27.75;;;25.20;97.70;;;;;;4882089;29;20037;-84
2021/06/30 01:50:12;;;;;;;31.70;26.95;;;25.20;97.70;;;;;;4881587;29;20456;-84
2021/06/30 01:52:38;;;;;;;31.15;26.55;;;25.20;97.70;;;;;;4897149;29;20043;-84
2021/06/30 01:55:05;;;;;;;31.25;26.35;;;25.20;97.70;;;;;;4897732;29;20104;-85
2021/06/30 01:57:31;;;;;;;30.38;27.02;;;25.20;97.70;;;;;;4898687;29;20024;-85
2021/06/30 01:59:56;;;;;;;33.80;27.90;;;25.20;97.70;;;;;;4897550;29;20539;-84
2021/06/30 02:02:28;;;;;;;31.80;27.83;;;25.20;97.70;;;;;;4881371;29;20037;-85
2021/06/30 02:05:04;;;;;;;30.00;26.70;;;25.20;97.70;;;;;;4898310;29;20100;-84
2021/06/30 02:07:31;;;;;;;32.13;26.80;;;25.20;97.70;;;;;;4897200;29;20024;-85
2021/06/30 02:09:57;;;;;;;31.83;27.58;;;25.20;97.70;;;;;;4881949;29;20403;-84
2021/06/30 02:12:23;;;;;;;28.80;25.63;;;25.20;97.70;;;;;;4898333;29;20037;-85
2021/06/30 02:14:49;;;;;;;32.70;28.10;;;25.20;97.70;;;;;;4881436;29;20037;-84
2021/06/30 02:17:18;;;;;;;32.30;26.85;;;25.20;97.70;;;;;;4881440;29;20032;-84
2021/06/30 02:19:44;;;;;;;33.28;27.95;;;25.20;97.70;;;;;;4882042;29;20032;-85
2021/06/30 02:22:10;;;;;;;32.00;27.90;;;25.20;97.70;;;;;;4896837;29;20041;-85
2021/06/30 02:24:36;;;;;;;28.98;25.85;;;25.20;97.70;;;;;;4896580;29;20051;-85
2021/06/30 02:27:02;;;;;;;31.77;27.58;;;25.20;97.70;;;;;;4881319;29;20032;-85
2021/06/30 02:29:28;;;;;;;32.97;27.92;;;25.20;97.70;;;;;;4896506;29;20040;-85
2021/06/30 02:31:53;;;;;;;32.33;28.33;;;25.20;97.70;;;;;;4896677;29;20504;-85
2021/06/30 02:34:19;;;;;;;31.42;26.75;;;25.20;97.70;;;;;;4896330;29;20028;-85
2021/06/30 02:36:45;;;;;;;30.90;26.98;;;25.20;97.70;;;;;;4880652;29;20029;-85
2021/06/30 02:39:10;;;;;;;31.40;27.02;;;25.20;97.70;;;;;;4898087;29;20451;-85
2021/06/30 02:41:36;;;;;;;32.35;27.05;;;25.20;97.70;;;;;;4880790;29;20036;-85
2021/06/30 02:44:02;;;;;;;32.15;27.48;;;25.20;97.70;;;;;;4881085;29;20483;-85
2021/06/30 02:46:28;;;;;;;33.00;28.02;;;25.20;97.70;;;;;;4896397;29;20025;-85
2021/06/30 02:48:54;;;;;;;30.95;27.55;;;25.20;97.70;;;;;;4896294;29;20069;-85
2021/06/30 02:51:19;;;;;;;31.30;26.77;;;25.20;97.60;;;;;;4880684;29;20079;-85
2021/06/30 02:53:45;;;;;;;31.05;26.50;;;25.20;97.60;;;;;;4880778;29;20299;-85
2021/06/30 02:56:11;;;;;;;34.15;28.38;;;25.20;97.60;;;;;;4896753;29;20064;-85
2021/06/30 02:58:36;;;;;;;31.08;26.98;;;25.20;97.60;;;;;;4896197;29;20043;-85
2021/06/30 03:01:02;;;;;;;31.95;26.60;;;25.10;97.60;;;;;;4880850;29;20036;-85
2021/06/30 03:03:28;;;;;;;31.75;27.02;;;25.10;97.60;;;;;;4896147;29;20060;-85
2021/06/30 03:05:53;;;;;;;31.98;27.38;;;25.10;97.60;;;;;;4880783;29;20039;-85
2021/06/30 03:08:19;;;;;;;32.92;27.90;;;25.10;97.60;;;;;;4881069;29;20084;-85
2021/06/30 03:10:44;;;;;;;34.15;28.08;;;25.10;97.60;;;;;;4896198;29;20033;-85
2021/06/30 03:13:10;;;;;;;28.65;25.33;;;25.10;97.60;;;;;;4880838;29;20103;-85
2021/06/30 03:15:36;;;;;;;32.00;27.80;;;25.10;97.60;;;;;;4895968;29;20040;-85
2021/06/30 03:18:01;;;;;;;30.17;26.77;;;25.10;97.60;;;;;;4896635;29;20037;-85
2021/06/30 03:20:27;;;;;;;30.00;26.38;;;25.10;97.60;;;;;;4880374;29;20401;-86
2021/06/30 03:22:52;;;;;;;32.63;27.05;;;25.10;97.60;;;;;;4880831;29;20467;-86
2021/06/30 03:25:18;;;;;;;31.70;26.85;;;25.10;97.60;;;;;;4880815;29;20112;-85
2021/06/30 03:27:44;;;;;;;30.27;25.25;;;25.10;97.60;;;;;;4896383;29;20036;-85
2021/06/30 03:30:11;;;;;;;28.85;25.23;;;25.10;97.60;;;;;;4896809;29;20028;-85
2021/06/30 03:32:37;;;;;;;29.90;25.35;;;25.10;97.60;;;;;;4896320;29;20076;-86
2021/06/30 03:35:05;;;;;;;30.27;26.10;;;25.10;97.60;;;;;;4881056;29;20061;-86
2021/06/30 03:37:31;;;;;;;28.90;25.15;;;25.10;97.60;;;;;;4896037;29;20028;-86
2021/06/30 03:39:57;;;;;;;30.33;26.10;;;25.10;97.60;;;;;;4880912;29;20081;-85
2021/06/30 03:42:23;;;;;;;30.70;26.08;;;25.10;97.60;;;;;;4896144;29;20044;-86
2021/06/30 03:44:48;;;;;;;31.75;26.23;;;25.10;97.60;;;;;;4895953;29;20043;-85
2021/06/30 03:47:14;;;;;;;29.25;25.52;;;25.10;97.60;;;;;;4898650;29;20025;-85
2021/06/30 03:49:40;;;;;;;28.02;24.98;;;25.10;97.60;;;;;;4883674;29;20448;-85
2021/06/30 03:52:06;;;;;;;30.58;25.65;;;25.10;97.60;;;;;;4883848;29;20060;-85
2021/06/30 03:54:33;;;;;;;30.65;26.17;;;25.10;97.60;;;;;;4899578;29;20028;-86
2021/06/30 03:56:58;;;;;;;31.58;26.05;;;25.10;97.60;;;;;;4883872;29;20033;-85
2021/06/30 03:59:24;;;;;;;30.55;26.05;;;25.10;97.60;;;;;;4899724;29;20048;-85
2021/06/30 04:01:53;;;;;;;30.75;25.17;;;25.10;97.60;;;;;;4898933;29;20052;-85
2021/06/30 04:04:19;;;;;;;30.77;25.30;;;25.10;97.60;;;;;;4899395;29;20040;-85
2021/06/30 04:06:45;;;;;;;31.67;25.75;;;25.10;97.60;;;;;;4899018;29;20029;-85
2021/06/30 04:09:11;;;;;;;29.15;25.02;;;25.10;97.60;;;;;;4899528;29;20032;-85
2021/06/30 04:11:37;;;;;;;29.80;25.33;;;25.10;97.60;;;;;;4898989;29;20037;-85
2021/06/30 04:14:03;;;;;;;29.20;25.50;;;25.10;97.60;;;;;;4883587;29;20468;-86
2021/06/30 04:16:29;;;;;;;29.90;25.13;;;25.10;97.80;;;;;;4899013;29;20483;-85
2021/06/30 04:18:55;;;;;;;27.95;24.27;;;25.10;97.60;;;;;;4898566;29;20035;-85
2021/06/30 04:21:21;;;;;;;28.85;24.33;;;25.10;97.60;;;;;;4899051;29;20111;-85
2021/06/30 04:23:46;;;;;;;28.02;24.23;;;25.10;97.50;;;;;;4883194;29;20131;-85
2021/06/30 04:26:12;;;;;;;29.42;25.80;;;25.10;97.50;;;;;;4883481;29;20033;-85
2021/06/30 04:28:38;;;;;;;28.35;24.15;;;25.10;97.50;;;;;;4898606;29;20100;-85
2021/06/30 04:31:03;;;;;;;28.42;24.20;;;25.10;97.50;;;;;;4898903;29;20536;-85
2021/06/30 04:33:30;;;;;;;26.48;23.17;;;25.10;97.50;;;;;;4898986;29;20043;-85
2021/06/30 04:35:57;;;;;;;27.02;23.63;;;25.10;97.50;;;;;;4898460;29;20092;-85
2021/06/30 04:38:25;;;;;;;29.05;24.80;;;25.10;97.50;;;;;;4883163;29;20043;-85
2021/06/30 04:40:52;;;;;;;25.63;22.38;;;25.00;97.40;;;;;;4899741;29;20037;-85
2021/06/30 04:43:17;;;;;;;25.92;22.50;;;25.10;97.50;;;;;;4899775;29;20127;-85
2021/06/30 04:45:43;;;;;;;26.58;22.58;;;25.10;97.50;;;;;;4898282;29;20119;-86
2021/06/30 04:48:09;;;;;;;24.58;21.63;;;25.00;97.40;;;;;;4882746;29;20036;-85
2021/06/30 04:50:34;;;;;;;25.45;22.63;;;25.00;97.40;;;;;;4882427;29;20043;-85
2021/06/30 04:53:00;;;;;;;24.65;21.98;;;25.00;97.40;;;;;;4883034;29;20032;-85
2021/06/30 04:55:26;;;;;;;24.20;21.40;;;25.00;97.40;;;;;;4898499;29;20033;-85
2021/06/30 04:57:51;;;;;;;24.33;21.73;;;25.00;97.40;;;;;;4898830;29;20111;-85
2021/06/30 05:00:17;;;;;;;25.08;21.15;;;25.00;97.40;;;;;;4898404;29;20033;-85
2021/06/30 05:02:43;;;;;;;24.42;20.92;;;25.00;97.40;;;;;;4882618;29;20039;-86
2021/06/30 05:05:09;;;;;;;23.13;20.63;;;25.00;97.40;;;;;;4883636;29;20036;-85
2021/06/30 05:07:34;;;;;;;22.77;20.30;;;25.00;97.40;;;;;;4899166;29;20480;-85
2021/06/30 05:10:00;;;;;;;22.73;19.98;;;25.00;97.40;;;;;;4883641;29;20032;-85
2021/06/30 05:12:25;;;;;;;21.80;19.38;;;25.00;97.40;;;;;;4883218;29;20044;-85
2021/06/30 05:14:51;;;;;;;23.75;20.38;;;25.00;97.40;;;;;;4882532;29;20033;-85
2021/06/30 05:17:17;;;;;;;22.17;19.77;;;25.00;97.40;;;;;;4882452;29;20039;-85
2021/06/30 05:19:42;;;;;;;22.95;20.05;;;25.00;97.40;;;;;;4897801;29;20032;-85
2021/06/30 05:22:08;;;;;;;22.00;19.65;;;25.00;97.40;;;;;;4882278;29;20032;-85
2021/06/30 05:24:34;;;;;;;21.85;19.15;;;25.00;97.40;;;;;;4882494;29;20127;-85
2021/06/30 05:27:00;;;;;;;22.23;19.75;;;25.00;97.40;;;;;;4881680;29;20039;-85
2021/06/30 05:29:26;;;;;;;21.17;18.75;;;25.00;97.40;;;;;;4882146;29;20045;-85
2021/06/30 05:31:51;;;;;;;22.60;19.13;;;25.00;97.40;;;;;;4897386;29;20028;-85
2021/06/30 05:34:17;;;;;;;21.85;19.45;;;25.00;97.40;;;;;;4897840;29;20044;-85
2021/06/30 05:36:49;;;;;;;21.63;19.05;;;25.00;97.40;;;;;;4897347;29;20043;-85
2021/06/30 05:39:16;;;;;;;21.50;19.20;;;25.00;97.40;;;;;;4897823;29;20094;-85
2021/06/30 05:41:43;;;;;;;22.35;18.77;;;25.00;97.40;;;;;;4881580;29;20097;-86
2021/06/30 05:44:09;;;;;;;22.02;18.38;;;25.00;97.40;;;;;;4897634;29;20036;-85
2021/06/30 05:46:35;;;;;;;20.23;18.02;;;25.00;97.40;;;;;;4881696;29;20140;-85
2021/06/30 05:49:00;;;;;;;20.27;17.48;;;25.00;97.40;;;;;;4881753;29;20029;-83
2021/06/30 05:51:26;;;;;;;19.80;17.67;;;25.00;97.40;;;;;;4897098;29;20064;-85
2021/06/30 05:53:51;;;;;;;19.98;17.65;;;25.00;97.40;;;;;;4881386;29;20037;-84
2021/06/30 05:56:18;;;;;;;21.25;17.63;;;25.00;97.40;;;;;;4897351;29;20040;-85
2021/06/30 05:58:44;;;;;;;19.35;16.75;;;25.00;97.40;;;;;;4881167;29;20399;-85
2021/06/30 06:01:11;;;;;;;20.33;17.10;;;25.00;97.40;;;;;;4897126;29;20036;-85
2021/06/30 06:03:36;;;;;;;19.35;17.02;;;25.00;97.40;;;;;;4881688;29;20040;-85
2021/06/30 06:06:02;;;;;;;18.05;15.98;;;25.00;97.40;;;;;;4881568;29;20033;-84
2021/06/30 06:08:28;;;;;;;18.70;16.30;;;25.00;97.40;;;;;;4898264;29;20498;-85
2021/06/30 06:10:53;;;;;;;19.05;15.93;;;25.00;97.40;;;;;;4896997;29;20076;-85
2021/06/30 06:13:19;;;;;;;17.40;15.38;;;25.00;97.40;;;;;;4897341;29;20532;-85
2021/06/30 06:15:45;;;;;;;17.20;15.32;;;25.00;97.40;;;;;;4896543;29;20067;-85
2021/06/30 06:18:10;;;;;;;17.85;15.95;;;25.00;97.40;;;;;;4881540;29;20423;-85
2021/06/30 06:20:36;;;;;;;18.30;15.88;;;25.00;97.40;;;;;;4896667;29;20484;-85
2021/06/30 06:23:02;;;;;;;18.80;16.65;;;25.00;97.40;;;;;;4896263;29;20119;-84
2021/06/30 06:25:28;;;;;;;17.38;15.50;;;25.00;97.40;;;;;;4881191;29;20044;-85
2021/06/30 06:27:53;;;;;;;17.00;15.07;;;25.00;97.30;;;;;;4896562;29;20033;-85
2021/06/30 06:30:19;;;;;;;17.42;14.98;;;25.00;97.30;;;;;;4880912;29;20064;-84
2021/06/30 06:32:45;;;;;;;15.75;14.15;;;25.00;97.30;;;;;;4897729;29;20028;-86
2021/06/30 06:35:11;;;;;;;16.48;14.77;;;25.00;97.30;;;;;;4896555;29;20043;-85
2021/06/30 06:37:37;;;;;;;15.77;14.07;;;25.00;97.30;;;;;;4880669;29;20501;-85
2021/06/30 06:40:10;;;;;;;16.42;14.52;;;25.00;97.30;;;;;;4880667;29;20482;-85
2021/06/30 06:42:37;;;;;;;15.85;14.15;;;25.00;97.30;;;;;;4897562;29;20051;-85
2021/06/30 06:45:05;;;;;;;15.18;13.48;;;25.00;97.30;;;;;;4896345;29;20585;-84
2021/06/30 06:47:30;;;;;;;16.20;13.88;;;25.00;97.30;;;;;;4896889;29;20025;-85
2021/06/30 06:49:56;;;;;;;15.60;13.90;;;25.00;97.40;;;;;;4896287;29;20040;-85
2021/06/30 06:52:22;;;;;;;15.50;13.88;;;25.00;97.40;;;;;;4878830;29;20075;-85
2021/06/30 06:54:47;;;;;;;14.45;12.70;;;25.00;97.40;;;;;;4896054;29;20071;-87
2021/06/30 06:57:13;;;;;;;15.00;13.07;;;25.00;97.40;;;;;;4896005;29;20029;-86
2021/06/30 06:59:38;;;;;;;14.77;12.98;;;25.00;97.40;;;;;;4880835;29;20043;-86
2021/06/30 07:02:04;;;;;;;13.90;12.45;;;25.00;97.30;;;;;;4880264;29;20088;-86
2021/06/30 07:04:30;;;;;;;15.52;13.30;;;25.00;97.30;;;;;;4880769;29;20048;-85
2021/06/30 07:06:56;;;;;;;15.50;13.38;;;25.00;97.30;;;;;;4895975;29;20041;-85
2021/06/30 07:09:22;;;;;;;15.35;13.70;;;25.00;97.30;;;;;;4894785;29;20037;-85
2021/06/30 07:11:47;;;;;;;13.20;11.90;;;25.00;97.30;;;;;;4896048;29;20076;-86
2021/06/30 07:14:13;;;;;;;13.95;12.45;;;25.00;97.30;;;;;;4897531;29;20112;-85
2021/06/30 07:16:38;;;;;;;14.23;12.20;;;25.00;97.30;;;;;;4896337;29;20037;-86
2021/06/30 07:19:04;;;;;;;13.02;11.65;;;25.00;97.30;;;;;;4895961;29;20479;-85
2021/06/30 07:21:32;;;;;;;13.88;11.57;;;25.00;97.30;;;;;;4897774;29;20119;-86
2021/06/30 07:23:57;;;;;;;12.32;11.00;;;25.00;97.30;;;;;;4899351;29;20037;-86
2021/06/30 07:26:23;;;;;;;11.35;10.25;;;25.00;97.20;;;;;;4883845;29;20039;-85
2021/06/30 07:28:49;;;;;;;12.68;11.30;;;25.00;97.20;;;;;;4899618;29;20104;-85
2021/06/30 07:31:15;;;;;;;10.90;9.73;;;25.00;97.20;;;;;;4899423;29;20052;-86
2021/06/30 07:33:41;;;;;;;11.85;10.65;;;25.00;97.30;;;;;;4899801;29;20424;-86
2021/06/30 07:36:08;;;;;;;11.25;10.15;;;25.00;97.20;;;;;;4884099;29;20053;-86
2021/06/30 07:38:34;;;;;;;11.60;10.18;;;25.00;97.20;;;;;;4884029;29;20043;-85
2021/06/30 07:40:59;;;;;;;10.82;9.70;;;25.00;97.20;;;;;;4899299;29;20112;-85
2021/06/30 07:43:25;;;;;;;12.00;10.23;;;25.00;97.20;;;;;;4899853;29;20033;-86
2021/06/30 07:45:51;;;;;;;10.55;9.45;;;25.00;97.20;;;;;;4900261;29;20113;-88
2021/06/30 07:48:16;;;;;;;11.63;10.13;;;25.00;97.20;;;;;;4884777;29;20395;-88
2021/06/30 07:50:42;;;;;;;11.43;9.43;;;25.00;97.20;;;;;;4900434;29;20036;-86
2021/06/30 07:53:08;;;;;;;10.00;8.90;;;25.00;97.20;;;;;;4899322;29;20053;-86
2021/06/30 07:55:33;;;;;;;9.57;8.57;;;25.00;97.20;;;;;;4881136;29;20495;-86
2021/06/30 07:57:59;;;;;;;10.43;9.32;;;25.00;97.10;;;;;;4883756;29;20075;-86
2021/06/30 08:00:25;;;;;;;9.63;8.68;;;25.00;97.10;;;;;;4897526;29;20040;-86
2021/06/30 08:02:51;;;;;;;10.35;9.25;;;25.00;97.10;;;;;;4868240;29;20188;-86
2021/06/30 08:05:16;;;;;;;10.60;9.50;;;25.00;97.10;;;;;;4899006;29;20039;-87
2021/06/30 08:07:42;;;;;;;9.32;8.32;;;25.00;97.10;;;;;;4867974;29;20063;-86
2021/06/30 08:10:08;;;;;;;8.98;8.07;;;25.00;97.10;;;;;;4883220;29;20535;-86
2021/06/30 08:12:35;;;;;;;9.60;8.25;;;25.00;97.10;;;;;;4899151;29;20041;-87
2021/06/30 08:15:01;;;;;;;9.35;8.27;;;25.00;97.10;;;;;;4899755;29;20033;-86
2021/06/30 08:17:26;;;;;;;9.65;8.55;;;25.00;97.10;;;;;;4889582;29;20056;-87
2021/06/30 08:19:52;;;;;;;9.85;8.38;;;25.00;97.10;;;;;;4908130;29;20543;-87
2021/06/30 08:22:18;;;;;;;8.98;7.93;;;25.00;97.10;;;;;;4906023;29;20040;-87
2021/06/30 08:24:44;;;;;;;9.93;8.63;;;25.00;97.10;;;;;;4906098;29;20033;-88
2021/06/30 08:27:11;;;;;;;8.70;7.80;;;25.00;97.10;;;;;;4887503;29;20037;-87
2021/06/30 08:29:38;;;;;;;9.20;8.20;;;25.00;97.10;;;;;;4900087;29;20475;-86
2021/06/30 08:32:05;;;;;;;8.57;7.68;;;25.00;97.10;;;;;;4898588;29;20036;-87
2021/06/30 08:34:31;;;;;;;8.82;7.70;;;25.00;97.10;;;;;;4882941;29;20033;-86
2021/06/30 08:37:01;;;;;;;10.23;8.45;;;25.00;97.10;;;;;;4883231;29;20033;-86
2021/06/30 08:39:28;;;;;;;9.13;7.93;;;25.00;97.10;;;;;;4898805;29;20029;-86
2021/06/30 08:41:54;;;;;;;8.52;7.63;;;25.00;97.10;;;;;;4899025;29;20092;-86
2021/06/30 08:44:20;;;;;;;9.45;8.23;;;25.00;97.10;;;;;;4898976;29;20036;-86
2021/06/30 08:46:47;;;;;;;8.43;7.53;;;25.00;97.10;;;;;;4883559;29;20484;-87
2021/06/30 08:49:23;;;;;;;9.32;8.00;;;25.00;97.10;;;;;;4898964;29;20044;-87
2021/06/30 08:51:50;;;;;;;8.70;7.75;;;25.00;97.10;;;;;;4899719;29;20073;-86
2021/06/30 08:54:17;;;;;;;8.65;7.60;;;25.00;97.10;;;;;;4898609;29;20040;-87
2021/06/30 08:56:43;;;;;;;10.52;8.10;;;25.00;97.10;;;;;;4881799;29;20029;-86
2021/06/30 08:59:08;;;;;;;8.05;7.25;;;25.00;97.10;;;;;;4895369;29;20116;-86
2021/06/30 09:01:34;;;;;;;7.93;7.13;;;25.00;97.10;;;;;;4898078;29;20116;-86
2021/06/30 09:04:01;;;;;;;8.65;7.05;;;25.00;97.10;;;;;;4899357;29;20036;-87
2021/06/30 09:06:28;;;;;;;8.73;7.43;;;25.00;97.10;;;;;;4899454;29;20386;-86
2021/06/30 09:09:15;;;;;;;7.90;7.10;;;25.00;97.10;;;;;;4898410;29;20036;-86
2021/06/30 09:11:42;;;;;;;8.07;7.20;;;25.00;97.10;;;;;;4898354;29;20092;-86
2021/06/30 09:14:20;;;;;;;7.57;6.78;;;25.00;97.10;;;;;;4882314;29;20040;-86
2021/06/30 09:16:51;;;;;;;7.68;6.88;;;25.00;97.10;;;;;;4899411;29;20029;-86
2021/06/30 09:19:17;;;;;;;7.40;6.70;;;25.00;97.10;;;;;;4882464;29;20033;-86
2021/06/30 09:21:42;;;;;;;8.48;7.38;;;25.00;97.10;;;;;;4882324;29;20044;-86
2021/06/30 09:24:08;;;;;;;8.07;6.95;;;25.00;97.10;;;;;;4882394;29;20075;-86
2021/06/30 09:26:36;;;;;;;8.32;7.45;;;25.00;97.10;;;;;;4897967;29;20472;-86
2021/06/30 09:29:12;;;;;;;8.63;7.68;;;25.00;97.10;;;;;;4899074;29;20108;-86
2021/06/30 09:31:42;;;;;;;8.18;7.32;;;25.00;97.10;;;;;;4898039;29;20028;-84
2021/06/30 09:34:08;;;;;;;7.38;6.40;;;25.00;97.10;;;;;;4897846;29;20155;-87
2021/06/30 09:36:57;;;;;;;7.90;7.13;;;25.00;97.10;;;;;;4898050;29;20071;-86
2021/06/30 09:39:24;;;;;;;8.07;6.88;;;25.00;97.10;;;;;;4897303;29;20798;-86
2021/06/30 09:42:00;;;;;;;7.60;6.80;;;25.00;97.10;;;;;;4897628;29;20063;-86
2021/06/30 09:44:27;;;;;;;7.45;6.35;;;25.00;97.10;;;;;;4896785;29;20079;-85
2021/06/30 09:46:57;;;;;;;8.05;7.05;;;25.00;97.10;;;;;;4897530;29;20033;-86
2021/06/30 09:49:23;;;;;;;7.57;6.78;;;25.00;97.10;;;;;;4897228;29;20035;-86
2021/06/30 09:52:09;;;;;;;7.93;6.90;;;25.00;97.10;;;;;;4898533;29;20067;-86
2021/06/30 09:54:36;;;;;;;6.30;5.70;;;25.10;97.10;;;;;;4897296;29;20025;-86
2021/06/30 09:57:14;;;;;;;7.72;6.40;;;25.00;97.10;;;;;;4898184;29;20060;-87
2021/06/30 09:59:44;;;;;;;8.43;6.90;;;25.00;97.10;;;;;;4898986;29;20053;-87
2021/06/30 10:02:16;;;;;;;7.38;6.50;;;25.10;97.10;;;;;;4882490;29;20036;-86
2021/06/30 10:05:09;;;;;;;6.50;5.80;;;25.00;97.10;;;;;;4898453;29;20244;-86
2021/06/30 10:07:34;;;;;;;6.70;6.00;;;25.00;97.00;;;;;;4897387;29;20045;-86
2021/06/30 10:10:08;;;;;;;6.07;5.45;;;25.00;97.10;;;;;;4881718;29;20085;-86
2021/06/30 10:12:35;;;;;;;6.57;5.90;;;25.10;97.10;;;;;;4896405;29;20036;-86
2021/06/30 10:15:04;;;;;;;7.38;6.30;;;25.10;97.10;;;;;;4881452;29;20491;-86
2021/06/30 10:17:29;;;;;;;6.15;5.55;;;25.10;97.10;;;;;;4896781;29;20435;-86
2021/06/30 10:19:56;;;;;;;6.03;5.40;;;25.10;97.10;;;;;;4881780;29;20036;-87
2021/06/30 10:22:24;;;;;;;6.15;5.55;;;25.10;97.00;;;;;;4896821;29;20055;-86
2021/06/30 10:24:51;;;;;;;5.68;5.18;;;25.10;97.00;;;;;;4896795;29;20029;-86
2021/06/30 10:27:18;;;;;;;5.65;5.05;;;25.10;97.00;;;;;;4881477;29;20048;-87
2021/06/30 10:29:52;;;;;;;5.68;4.95;;;25.10;97.00;;;;;;4897424;29;20029;-88
2021/06/30 10:32:17;;;;;;;5.00;4.50;;;25.10;97.00;;;;;;4897955;29;20043;-87
2021/06/30 10:34:46;;;;;;;4.65;4.22;;;25.10;97.00;;;;;;4881639;29;20408;-87
2021/06/30 10:37:28;;;;;;;4.65;4.15;;;25.10;97.00;;;;;;4896650;29;20136;-85
2021/06/30 10:39:56;;;;;;;5.03;4.32;;;25.10;97.00;;;;;;4898170;29;20020;-86
2021/06/30 10:42:37;;;;;;;4.57;4.13;;;25.10;97.00;;;;;;4896348;29;20475;-85
2021/06/30 10:45:15;;;;;;;4.28;3.85;;;25.10;97.00;;;;;;4896391;29;20052;-83
2021/06/30 10:47:46;;;;;;;4.32;3.92;;;25.10;97.20;;;;;;4896477;29;20039;-83
2021/06/30 10:50:24;;;;;;;4.22;3.80;;;25.10;97.00;;;;;;4896327;29;20024;-84
2021/06/30 10:52:56;;;;;;;4.40;3.67;;;25.10;97.00;;;;;;4896263;29;20056;-83
2021/06/30 10:55:37;;;;;;;4.05;3.55;;;25.10;97.00;;;;;;4896101;29;20033;-83
2021/06/30 10:58:15;;;;;;;4.53;3.88;;;25.10;97.00;;;;;;4900503;29;20056;-83
2021/06/30 11:00:51;;;;;;;4.50;3.95;;;25.10;97.00;;;;;;4900270;29;20028;-83
2021/06/30 11:03:32;;;;;;;4.53;3.90;;;25.10;97.00;;;;;;4899837;29;20036;-83
2021/06/30 11:06:12;;;;;;;4.82;3.60;;;25.10;97.00;;;;;;4901706;29;20098;-83
2021/06/30 11:08:56;;;;;;;4.35;3.58;;;25.10;97.00;;;;;;4901667;29;20028;-83
2021/06/30 11:11:34;;;;;;;4.25;3.80;;;25.10;97.00;;;;;;4899875;29;20045;-83
2021/06/30 11:14:14;;;;;;;3.83;3.40;;;25.10;97.00;;;;;;4901602;29;20031;-83
2021/06/30 11:16:40;;;;;;;3.60;3.30;;;25.10;97.00;;;;;;4900406;29;20036;-83
2021/06/30 11:19:27;;;;;;;3.55;3.25;;;25.10;97.10;;;;;;4901630;29;20357;-83
2021/06/30 11:22:08;;;;;;;3.50;3.20;;;25.10;97.10;;;;;;4899668;29;20064;-83
2021/06/30 11:24:36;;;;;;;3.75;3.15;;;25.00;97.00;;;;;;4900055;29;20140;-83
2021/06/30 11:27:21;;;;;;;3.35;3.05;;;25.10;97.10;;;;;;4899859;29;20076;-82
2021/06/30 11:29:56;;;;;;;3.78;3.17;;;25.10;97.10;;;;;;4901417;29;20123;-83
2021/06/30 11:32:35;;;;;;;3.45;3.15;;;25.10;97.10;;;;;;4899471;29;20035;-83
2021/06/30 11:35:10;;;;;;;3.17;2.88;;;25.10;97.10;;;;;;4899934;29;20029;-83
2021/06/30 11:37:44;;;;;;;3.22;2.90;;;25.10;97.10;;;;;;4899590;29;20783;-83
2021/06/30 11:40:24;;;;;;;;;;;25.10;97.10;;;;;;4900381;29;20092;-83
2021/06/30 11:42:53;;;;;;;3.58;3.15;;;25.10;97.00;;;;;;4899498;29;19915;-83
2021/06/30 11:45:35;;;;;;;3.63;3.15;;;25.00;97.10;;;;;;4899541;29;20025;-84
2021/06/30 11:48:06;;;;;;;3.13;2.83;;;25.10;97.10;;;;;;4900627;29;20028;-83
2021/06/30 11:50:56;;;;;;;3.30;3.00;;;25.10;97.10;;;;;;4899316;29;20368;-83
2021/06/30 11:53:45;;;;;;;3.78;3.25;;;25.10;97.10;;;;;;4900057;29;20052;-83
2021/06/30 11:56:33;;;;;;;4.57;3.42;;;25.10;97.10;;;;;;4899576;29;20373;-83
2021/06/30 11:59:00;;;;;;;3.88;3.42;;;25.10;97.10;;;;;;4883520;29;20043;-83
2021/06/30 12:01:29;;;;;;;4.53;4.00;;;25.00;97.00;;;;;;4899026;29;20040;-83
2021/06/30 12:04:14;;;;;;;4.43;3.60;;;25.00;97.10;;;;;;4899152;29;20533;-83
2021/06/30 12:06:40;;;;;;;;;;;25.10;97.00;;;;;;4899064;29;20032;-83
2021/06/30 12:09:09;;;;;;;4.00;3.60;;;25.00;97.00;;;;;;4899312;29;19915;-83
2021/06/30 12:11:36;;;;;;;4.63;3.85;;;25.00;97.10;;;;;;4898759;29;20032;-83
2021/06/30 12:14:08;;;;;;;4.20;3.80;;;25.00;97.10;;;;;;4898983;29;20033;-83
2021/06/30 12:16:48;;;;;;;4.38;3.90;;;25.00;97.10;;;;;;4900429;29;20111;-83
2021/06/30 12:19:20;;;;;;;4.40;4.00;;;25.00;97.30;;;;;;4885085;29;20029;-84
2021/06/30 12:21:47;;;;;;;4.70;4.20;;;25.00;97.10;;;;;;4900164;29;20100;-82
2021/06/30 12:24:19;;;;;;;5.10;4.45;;;25.00;97.10;;;;;;4900171;29;20057;-83
2021/06/30 12:27:08;;;;;;;4.68;3.78;;;25.00;97.10;;;;;;4898298;29;20383;-83
2021/06/30 12:29:39;;;;;;;4.50;4.10;;;25.00;97.00;;;;;;4899659;29;20103;-83
2021/06/30 12:32:15;;;;;;;4.88;4.38;;;25.00;97.00;;;;;;4898021;29;20032;-83
2021/06/30 12:34:43;;;;;;;5.80;4.85;;;25.00;97.00;;;;;;4882596;29;20037;-83
2021/06/30 12:37:18;;;;;;;5.13;4.60;;;25.00;97.00;;;;;;4898133;29;20391;-84
2021/06/30 12:40:02;;;;;;;4.90;4.40;;;25.00;97.00;;;;;;4899454;29;20463;-83
2021/06/30 12:42:52;;;;;;;5.50;4.50;;;25.00;97.00;;;;;;4898147;29;20041;-83